sensor_id;sensor_type;location;lat;lon;timestamp;P1;durP1;ratioP1;P2;durP2;ratioP2
16197;SDS011;8206;51.440;6.914;2024-03-22T00:01:58;5.70;;;4.07;;
16197;SDS011;8206;51.440;6.914;2024-03-22T00:04:25;4.37;;;4.10;;
16197;SDS011;8206;51.440;6.914;2024-03-22T00:06:51;6.53;;;6.03;;
16197;SDS011;8206;51.440;6.914;2024-03-22T00:09:18;4.50;;;4.07;;
16197;SDS011;8206;51.440;6.914;2024-03-22T00:11:44;4.80;;;4.40;;
16197;SDS011;8206;51.440;6.914;2024-03-22T00:14:11;10.67;;;6.27;;
16197;SDS011;8206;51.440;6.914;2024-03-22T00:16:37;12.67;;;6.17;;
16197;SDS011;8206;51.440;6.914;2024-03-22T00:19:05;12.17;;;7.00;;
16197;SDS011;8206;51.440;6.914;2024-03-22T00:21:31;9.70;;;7.33;;
16197;SDS011;8206;51.440;6.914;2024-03-22T00:23:58;4.13;;;3.93;;
16197;SDS011;8206;51.440;6.914;2024-03-22T00:26:24;9.67;;;5.43;;
16197;SDS011;8206;51.440;6.914;2024-03-22T00:28:50;5.30;;;4.80;;
16197;SDS011;8206;51.440;6.914;2024-03-22T00:31:16;13.33;;;4.77;;
16197;SDS011;8206;51.440;6.914;2024-03-22T00:33:44;8.30;;;6.73;;
16197;SDS011;8206;51.440;6.914;2024-03-22T00:36:11;7.00;;;5.63;;
16197;SDS011;8206;51.440;6.914;2024-03-22T00:38:38;8.23;;;6.80;;
16197;SDS011;8206;51.440;6.914;2024-03-22T00:41:03;9.90;;;6.80;;
16197;SDS011;8206;51.440;6.914;2024-03-22T00:43:31;11.57;;;5.70;;
16197;SDS011;8206;51.440;6.914;2024-03-22T00:45:57;6.83;;;5.37;;
16197;SDS011;8206;51.440;6.914;2024-03-22T00:48:25;9.70;;;4.93;;
16197;SDS011;8206;51.440;6.914;2024-03-22T00:50:51;9.13;;;7.23;;
16197;SDS011;8206;51.440;6.914;2024-03-22T00:53:19;3.97;;;3.60;;
16197;SDS011;8206;51.440;6.914;2024-03-22T00:55:44;9.37;;;6.33;;
16197;SDS011;8206;51.440;6.914;2024-03-22T00:58:15;7.70;;;4.70;;
16197;SDS011;8206;51.440;6.914;2024-03-22T01:00:43;6.73;;;6.13;;
16197;SDS011;8206;51.440;6.914;2024-03-22T01:03:09;11.63;;;7.60;;
16197;SDS011;8206;51.440;6.914;2024-03-22T01:05:35;12.17;;;5.30;;
16197;SDS011;8206;51.440;6.914;2024-03-22T01:08:02;6.03;;;5.50;;
16197;SDS011;8206;51.440;6.914;2024-03-22T01:10:29;8.93;;;6.77;;
16197;SDS011;8206;51.440;6.914;2024-03-22T01:12:56;9.93;;;7.67;;
16197;SDS011;8206;51.440;6.914;2024-03-22T01:15:22;6.50;;;5.93;;
16197;SDS011;8206;51.440;6.914;2024-03-22T01:17:48;8.03;;;5.47;;
16197;SDS011;8206;51.440;6.914;2024-03-22T01:20:14;6.53;;;5.43;;
16197;SDS011;8206;51.440;6.914;2024-03-22T01:22:41;10.03;;;6.47;;
16197;SDS011;8206;51.440;6.914;2024-03-22T01:25:07;6.13;;;5.53;;
16197;SDS011;8206;51.440;6.914;2024-03-22T01:27:36;5.70;;;5.37;;
16197;SDS011;8206;51.440;6.914;2024-03-22T01:30:03;6.80;;;6.17;;
16197;SDS011;8206;51.440;6.914;2024-03-22T01:32:30;8.23;;;5.87;;
16197;SDS011;8206;51.440;6.914;2024-03-22T01:34:56;7.73;;;6.53;;
16197;SDS011;8206;51.440;6.914;2024-03-22T01:37:22;7.87;;;6.73;;
16197;SDS011;8206;51.440;6.914;2024-03-22T01:39:49;5.90;;;5.47;;
16197;SDS011;8206;51.440;6.914;2024-03-22T01:42:15;7.73;;;5.57;;
16197;SDS011;8206;51.440;6.914;2024-03-22T01:44:43;13.23;;;6.83;;
16197;SDS011;8206;51.440;6.914;2024-03-22T01:47:09;5.60;;;5.17;;
16197;SDS011;8206;51.440;6.914;2024-03-22T01:49:36;16.87;;;7.23;;
16197;SDS011;8206;51.440;6.914;2024-03-22T01:52:02;8.80;;;6.73;;
16197;SDS011;8206;51.440;6.914;2024-03-22T01:54:29;15.07;;;6.63;;
16197;SDS011;8206;51.440;6.914;2024-03-22T01:56:55;10.43;;;5.73;;
16197;SDS011;8206;51.440;6.914;2024-03-22T01:59:22;11.97;;;6.30;;
16197;SDS011;8206;51.440;6.914;2024-03-22T02:01:50;8.47;;;7.77;;
16197;SDS011;8206;51.440;6.914;2024-03-22T02:04:17;7.07;;;6.30;;
16197;SDS011;8206;51.440;6.914;2024-03-22T02:06:42;8.17;;;7.43;;
16197;SDS011;8206;51.440;6.914;2024-03-22T02:09:09;7.47;;;5.63;;
16197;SDS011;8206;51.440;6.914;2024-03-22T02:11:35;10.67;;;7.27;;
16197;SDS011;8206;51.440;6.914;2024-03-22T02:14:03;9.90;;;5.37;;
16197;SDS011;8206;51.440;6.914;2024-03-22T02:16:29;11.90;;;7.50;;
16197;SDS011;8206;51.440;6.914;2024-03-22T02:18:57;9.53;;;6.70;;
16197;SDS011;8206;51.440;6.914;2024-03-22T02:21:23;10.07;;;6.93;;
16197;SDS011;8206;51.440;6.914;2024-03-22T02:23:51;6.53;;;5.43;;
16197;SDS011;8206;51.440;6.914;2024-03-22T02:26:16;6.83;;;6.30;;
16197;SDS011;8206;51.440;6.914;2024-03-22T02:28:43;7.80;;;5.23;;
16197;SDS011;8206;51.440;6.914;2024-03-22T02:31:09;10.10;;;7.53;;
16197;SDS011;8206;51.440;6.914;2024-03-22T02:33:35;5.67;;;5.17;;
16197;SDS011;8206;51.440;6.914;2024-03-22T02:36:01;8.73;;;5.33;;
16197;SDS011;8206;51.440;6.914;2024-03-22T02:38:28;6.10;;;5.50;;
16197;SDS011;8206;51.440;6.914;2024-03-22T02:40:55;10.67;;;7.23;;
16197;SDS011;8206;51.440;6.914;2024-03-22T02:43:24;16.17;;;8.37;;
16197;SDS011;8206;51.440;6.914;2024-03-22T02:45:50;5.40;;;5.07;;
16197;SDS011;8206;51.440;6.914;2024-03-22T02:48:16;7.07;;;6.47;;
16197;SDS011;8206;51.440;6.914;2024-03-22T02:50:42;6.63;;;5.83;;
16197;SDS011;8206;51.440;6.914;2024-03-22T02:53:09;9.50;;;6.37;;
16197;SDS011;8206;51.440;6.914;2024-03-22T02:55:36;8.90;;;5.17;;
16197;SDS011;8206;51.440;6.914;2024-03-22T02:58:04;7.50;;;6.63;;
16197;SDS011;8206;51.440;6.914;2024-03-22T03:00:30;8.27;;;4.77;;
16197;SDS011;8206;51.440;6.914;2024-03-22T03:02:57;11.40;;;4.97;;
16197;SDS011;8206;51.440;6.914;2024-03-22T03:05:23;7.23;;;6.03;;
16197;SDS011;8206;51.440;6.914;2024-03-22T03:07:50;10.20;;;5.10;;
16197;SDS011;8206;51.440;6.914;2024-03-22T03:10:16;7.37;;;4.63;;
16197;SDS011;8206;51.440;6.914;2024-03-22T03:12:42;9.57;;;5.97;;
16197;SDS011;8206;51.440;6.914;2024-03-22T03:15:10;6.97;;;4.63;;
16197;SDS011;8206;51.440;6.914;2024-03-22T03:17:36;10.83;;;5.63;;
16197;SDS011;8206;51.440;6.914;2024-03-22T03:20:02;5.83;;;4.80;;
16197;SDS011;8206;51.440;6.914;2024-03-22T03:22:32;9.13;;;6.40;;
16197;SDS011;8206;51.440;6.914;2024-03-22T03:24:58;10.00;;;6.67;;
16197;SDS011;8206;51.440;6.914;2024-03-22T03:27:25;6.87;;;5.30;;
16197;SDS011;8206;51.440;6.914;2024-03-22T03:29:51;14.47;;;6.17;;
16197;SDS011;8206;51.440;6.914;2024-03-22T03:32:18;19.47;;;6.50;;
16197;SDS011;8206;51.440;6.914;2024-03-22T03:34:44;5.60;;;5.10;;
16197;SDS011;8206;51.440;6.914;2024-03-22T03:37:11;8.23;;;7.20;;
16197;SDS011;8206;51.440;6.914;2024-03-22T03:39:36;15.00;;;7.73;;
16197;SDS011;8206;51.440;6.914;2024-03-22T03:42:03;6.17;;;5.77;;
16197;SDS011;8206;51.440;6.914;2024-03-22T03:44:29;4.67;;;4.27;;
16197;SDS011;8206;51.440;6.914;2024-03-22T03:46:56;6.20;;;5.67;;
16197;SDS011;8206;51.440;6.914;2024-03-22T03:49:23;7.20;;;4.40;;
16197;SDS011;8206;51.440;6.914;2024-03-22T03:51:49;7.57;;;6.37;;
16197;SDS011;8206;51.440;6.914;2024-03-22T03:54:15;14.23;;;7.57;;
16197;SDS011;8206;51.440;6.914;2024-03-22T03:56:42;6.93;;;6.37;;
16197;SDS011;8206;51.440;6.914;2024-03-22T03:59:08;6.43;;;4.90;;
16197;SDS011;8206;51.440;6.914;2024-03-22T04:01:34;5.00;;;4.70;;
16197;SDS011;8206;51.440;6.914;2024-03-22T04:04:00;8.50;;;5.33;;
16197;SDS011;8206;51.440;6.914;2024-03-22T04:06:29;12.07;;;6.90;;
16197;SDS011;8206;51.440;6.914;2024-03-22T04:08:55;6.20;;;5.67;;
16197;SDS011;8206;51.440;6.914;2024-03-22T04:11:22;6.10;;;5.50;;
16197;SDS011;8206;51.440;6.914;2024-03-22T04:13:48;12.77;;;5.10;;
16197;SDS011;8206;51.440;6.914;2024-03-22T04:16:15;5.70;;;5.27;;
16197;SDS011;8206;51.440;6.914;2024-03-22T04:18:40;4.53;;;3.30;;
16197;SDS011;8206;51.440;6.914;2024-03-22T04:21:07;12.00;;;6.03;;
16197;SDS011;8206;51.440;6.914;2024-03-22T04:23:34;9.93;;;6.93;;
16197;SDS011;8206;51.440;6.914;2024-03-22T04:26:01;9.80;;;9.00;;
16197;SDS011;8206;51.440;6.914;2024-03-22T04:28:28;6.70;;;5.70;;
16197;SDS011;8206;51.440;6.914;2024-03-22T04:30:56;7.60;;;5.43;;
16197;SDS011;8206;51.440;6.914;2024-03-22T04:33:23;9.37;;;4.70;;
16197;SDS011;8206;51.440;6.914;2024-03-22T04:35:50;9.00;;;5.23;;
16197;SDS011;8206;51.440;6.914;2024-03-22T04:38:16;7.37;;;6.43;;
16197;SDS011;8206;51.440;6.914;2024-03-22T04:40:44;5.63;;;4.43;;
16197;SDS011;8206;51.440;6.914;2024-03-22T04:43:11;6.23;;;5.67;;
16197;SDS011;8206;51.440;6.914;2024-03-22T04:45:36;7.87;;;7.10;;
16197;SDS011;8206;51.440;6.914;2024-03-22T04:48:03;7.90;;;5.30;;
16197;SDS011;8206;51.440;6.914;2024-03-22T04:50:30;8.50;;;6.50;;
16197;SDS011;8206;51.440;6.914;2024-03-22T04:52:56;8.37;;;4.53;;
16197;SDS011;8206;51.440;6.914;2024-03-22T04:55:22;5.47;;;4.97;;
16197;SDS011;8206;51.440;6.914;2024-03-22T04:57:51;8.47;;;6.33;;
16197;SDS011;8206;51.440;6.914;2024-03-22T05:00:17;5.50;;;5.07;;
16197;SDS011;8206;51.440;6.914;2024-03-22T05:02:44;7.23;;;5.20;;
16197;SDS011;8206;51.440;6.914;2024-03-22T05:05:10;5.60;;;4.77;;
16197;SDS011;8206;51.440;6.914;2024-03-22T05:07:37;5.47;;;4.97;;
16197;SDS011;8206;51.440;6.914;2024-03-22T05:10:04;10.93;;;7.73;;
16197;SDS011;8206;51.440;6.914;2024-03-22T05:12:31;4.80;;;4.53;;
16197;SDS011;8206;51.440;6.914;2024-03-22T05:14:58;11.43;;;7.07;;
16197;SDS011;8206;51.440;6.914;2024-03-22T05:17:25;5.40;;;4.83;;
16197;SDS011;8206;51.440;6.914;2024-03-22T05:19:50;11.50;;;4.83;;
16197;SDS011;8206;51.440;6.914;2024-03-22T05:22:17;9.37;;;5.40;;
16197;SDS011;8206;51.440;6.914;2024-03-22T05:24:45;5.00;;;4.63;;
16197;SDS011;8206;51.440;6.914;2024-03-22T05:27:11;6.07;;;5.50;;
16197;SDS011;8206;51.440;6.914;2024-03-22T05:29:37;8.27;;;4.23;;
16197;SDS011;8206;51.440;6.914;2024-03-22T05:32:06;4.80;;;4.40;;
16197;SDS011;8206;51.440;6.914;2024-03-22T05:34:32;5.27;;;4.87;;
16197;SDS011;8206;51.440;6.914;2024-03-22T05:36:58;9.60;;;6.90;;
16197;SDS011;8206;51.440;6.914;2024-03-22T05:39:24;9.73;;;5.27;;
16197;SDS011;8206;51.440;6.914;2024-03-22T05:41:51;8.07;;;3.83;;
16197;SDS011;8206;51.440;6.914;2024-03-22T05:44:16;8.53;;;5.43;;
16197;SDS011;8206;51.440;6.914;2024-03-22T05:46:43;5.23;;;4.80;;
16197;SDS011;8206;51.440;6.914;2024-03-22T05:49:10;5.50;;;5.13;;
16197;SDS011;8206;51.440;6.914;2024-03-22T05:51:37;5.60;;;5.17;;
16197;SDS011;8206;51.440;6.914;2024-03-22T05:54:03;5.57;;;5.07;;
16197;SDS011;8206;51.440;6.914;2024-03-22T05:56:30;3.97;;;3.57;;
16197;SDS011;8206;51.440;6.914;2024-03-22T05:58:55;5.10;;;4.67;;
16197;SDS011;8206;51.440;6.914;2024-03-22T06:01:22;8.50;;;4.27;;
16197;SDS011;8206;51.440;6.914;2024-03-22T06:03:48;12.03;;;3.10;;
16197;SDS011;8206;51.440;6.914;2024-03-22T06:06:16;6.37;;;4.03;;
16197;SDS011;8206;51.440;6.914;2024-03-22T06:08:42;5.63;;;3.43;;
16197;SDS011;8206;51.440;6.914;2024-03-22T06:11:10;5.03;;;4.63;;
16197;SDS011;8206;51.440;6.914;2024-03-22T06:13:36;4.20;;;3.93;;
16197;SDS011;8206;51.440;6.914;2024-03-22T06:16:03;5.23;;;4.23;;
16197;SDS011;8206;51.440;6.914;2024-03-22T06:18:30;6.27;;;5.57;;
16197;SDS011;8206;51.440;6.914;2024-03-22T06:20:56;6.83;;;4.57;;
16197;SDS011;8206;51.440;6.914;2024-03-22T06:23:23;10.20;;;5.27;;
16197;SDS011;8206;51.440;6.914;2024-03-22T06:25:53;4.80;;;4.37;;
16197;SDS011;8206;51.440;6.914;2024-03-22T06:28:19;11.23;;;6.73;;
16197;SDS011;8206;51.440;6.914;2024-03-22T06:30:46;4.77;;;4.40;;
16197;SDS011;8206;51.440;6.914;2024-03-22T06:33:12;4.37;;;3.63;;
16197;SDS011;8206;51.440;6.914;2024-03-22T06:35:40;12.40;;;4.00;;
16197;SDS011;8206;51.440;6.914;2024-03-22T06:38:06;4.13;;;3.83;;
16197;SDS011;8206;51.440;6.914;2024-03-22T06:40:34;10.67;;;5.50;;
16197;SDS011;8206;51.440;6.914;2024-03-22T06:43:00;5.27;;;2.97;;
16197;SDS011;8206;51.440;6.914;2024-03-22T06:45:27;4.53;;;3.50;;
16197;SDS011;8206;51.440;6.914;2024-03-22T06:47:52;4.37;;;3.77;;
16197;SDS011;8206;51.440;6.914;2024-03-22T06:50:19;12.57;;;3.87;;
16197;SDS011;8206;51.440;6.914;2024-03-22T06:52:49;5.67;;;5.17;;
16197;SDS011;8206;51.440;6.914;2024-03-22T06:55:16;3.57;;;2.93;;
16197;SDS011;8206;51.440;6.914;2024-03-22T06:57:43;5.47;;;5.03;;
16197;SDS011;8206;51.440;6.914;2024-03-22T07:00:11;3.53;;;3.23;;
16197;SDS011;8206;51.440;6.914;2024-03-22T07:02:38;3.75;;;3.08;;
16197;SDS011;8206;51.440;6.914;2024-03-22T07:05:05;7.97;;;4.20;;
16197;SDS011;8206;51.440;6.914;2024-03-22T07:07:31;4.43;;;4.07;;
16197;SDS011;8206;51.440;6.914;2024-03-22T07:09:58;5.73;;;3.70;;
16197;SDS011;8206;51.440;6.914;2024-03-22T07:12:24;4.45;;;4.07;;
16197;SDS011;8206;51.440;6.914;2024-03-22T07:14:51;8.15;;;3.55;;
16197;SDS011;8206;51.440;6.914;2024-03-22T07:17:18;5.70;;;5.27;;
16197;SDS011;8206;51.440;6.914;2024-03-22T07:19:48;3.05;;;2.80;;
16197;SDS011;8206;51.440;6.914;2024-03-22T07:22:16;4.88;;;4.47;;
16197;SDS011;8206;51.440;6.914;2024-03-22T07:24:41;4.38;;;3.28;;
16197;SDS011;8206;51.440;6.914;2024-03-22T07:27:08;4.85;;;4.10;;
16197;SDS011;8206;51.440;6.914;2024-03-22T07:29:34;3.85;;;3.53;;
16197;SDS011;8206;51.440;6.914;2024-03-22T07:32:02;6.10;;;3.42;;
16197;SDS011;8206;51.440;6.914;2024-03-22T07:34:28;5.93;;;3.67;;
16197;SDS011;8206;51.440;6.914;2024-03-22T07:36:55;3.03;;;2.88;;
16197;SDS011;8206;51.440;6.914;2024-03-22T07:39:20;4.68;;;4.32;;
16197;SDS011;8206;51.440;6.914;2024-03-22T07:41:47;3.95;;;3.75;;
16197;SDS011;8206;51.440;6.914;2024-03-22T07:44:14;2.85;;;2.75;;
16197;SDS011;8206;51.440;6.914;2024-03-22T07:46:42;5.35;;;4.03;;
16197;SDS011;8206;51.440;6.914;2024-03-22T07:49:09;5.28;;;4.60;;
16197;SDS011;8206;51.440;6.914;2024-03-22T07:51:37;8.07;;;3.85;;
16197;SDS011;8206;51.440;6.914;2024-03-22T07:54:02;3.72;;;3.42;;
16197;SDS011;8206;51.440;6.914;2024-03-22T07:56:29;2.22;;;2.13;;
16197;SDS011;8206;51.440;6.914;2024-03-22T07:58:55;4.00;;;3.65;;
16197;SDS011;8206;51.440;6.914;2024-03-22T08:01:21;5.20;;;4.25;;
16197;SDS011;8206;51.440;6.914;2024-03-22T08:03:47;3.40;;;3.20;;
16197;SDS011;8206;51.440;6.914;2024-03-22T08:06:16;5.43;;;4.75;;
16197;SDS011;8206;51.440;6.914;2024-03-22T08:08:41;5.78;;;2.80;;
16197;SDS011;8206;51.440;6.914;2024-03-22T08:11:08;3.60;;;3.38;;
16197;SDS011;8206;51.440;6.914;2024-03-22T08:13:34;4.45;;;4.15;;
16197;SDS011;8206;51.440;6.914;2024-03-22T08:16:01;3.80;;;3.55;;
16197;SDS011;8206;51.440;6.914;2024-03-22T08:18:27;5.70;;;3.47;;
16197;SDS011;8206;51.440;6.914;2024-03-22T08:20:54;3.63;;;3.17;;
16197;SDS011;8206;51.440;6.914;2024-03-22T08:23:21;2.85;;;2.65;;
16197;SDS011;8206;51.440;6.914;2024-03-22T08:25:48;5.53;;;3.42;;
16197;SDS011;8206;51.440;6.914;2024-03-22T08:28:13;8.88;;;4.82;;
16197;SDS011;8206;51.440;6.914;2024-03-22T08:30:40;3.38;;;3.08;;
16197;SDS011;8206;51.440;6.914;2024-03-22T08:33:07;4.30;;;3.92;;
16197;SDS011;8206;51.440;6.914;2024-03-22T08:35:34;7.20;;;2.38;;
16197;SDS011;8206;51.440;6.914;2024-03-22T08:37:59;1.95;;;1.65;;
16197;SDS011;8206;51.440;6.914;2024-03-22T08:40:27;2.13;;;2.03;;
16197;SDS011;8206;51.440;6.914;2024-03-22T08:42:53;2.83;;;2.63;;
16197;SDS011;8206;51.440;6.914;2024-03-22T08:45:20;3.13;;;2.95;;
16197;SDS011;8206;51.440;6.914;2024-03-22T08:47:46;5.68;;;3.35;;
16197;SDS011;8206;51.440;6.914;2024-03-22T08:50:12;3.13;;;2.78;;
16197;SDS011;8206;51.440;6.914;2024-03-22T08:52:38;3.20;;;2.80;;
16197;SDS011;8206;51.440;6.914;2024-03-22T08:55:05;2.58;;;2.42;;
16197;SDS011;8206;51.440;6.914;2024-03-22T08:57:33;2.22;;;2.13;;
16197;SDS011;8206;51.440;6.914;2024-03-22T09:00:00;2.95;;;2.75;;
16197;SDS011;8206;51.440;6.914;2024-03-22T09:02:26;2.42;;;2.33;;
16197;SDS011;8206;51.440;6.914;2024-03-22T09:04:52;4.55;;;4.13;;
16197;SDS011;8206;51.440;6.914;2024-03-22T09:07:19;1.73;;;1.73;;
16197;SDS011;8206;51.440;6.914;2024-03-22T09:09:46;3.80;;;3.50;;
16197;SDS011;8206;51.440;6.914;2024-03-22T09:12:11;2.58;;;2.42;;
16197;SDS011;8206;51.440;6.914;2024-03-22T09:14:39;7.05;;;2.38;;
16197;SDS011;8206;51.440;6.914;2024-03-22T09:17:05;5.63;;;4.45;;
16197;SDS011;8206;51.440;6.914;2024-03-22T09:19:32;2.78;;;2.65;;
16197;SDS011;8206;51.440;6.914;2024-03-22T09:21:58;2.60;;;2.42;;
16197;SDS011;8206;51.440;6.914;2024-03-22T09:24:24;3.42;;;2.67;;
16197;SDS011;8206;51.440;6.914;2024-03-22T09:26:50;1.98;;;1.88;;
16197;SDS011;8206;51.440;6.914;2024-03-22T09:29:18;3.65;;;3.30;;
16197;SDS011;8206;51.440;6.914;2024-03-22T09:31:45;2.25;;;2.15;;
16197;SDS011;8206;51.440;6.914;2024-03-22T09:34:12;1.98;;;1.88;;
16197;SDS011;8206;51.440;6.914;2024-03-22T09:36:38;4.53;;;1.73;;
16197;SDS011;8206;51.440;6.914;2024-03-22T09:39:04;2.85;;;2.75;;
16197;SDS011;8206;51.440;6.914;2024-03-22T09:41:31;8.27;;;2.22;;
16197;SDS011;8206;51.440;6.914;2024-03-22T09:43:58;3.70;;;3.50;;
16197;SDS011;8206;51.440;6.914;2024-03-22T09:46:26;1.95;;;1.83;;
16197;SDS011;8206;51.440;6.914;2024-03-22T09:48:54;3.85;;;3.50;;
16197;SDS011;8206;51.440;6.914;2024-03-22T09:51:21;1.90;;;1.80;;
16197;SDS011;8206;51.440;6.914;2024-03-22T09:53:48;2.08;;;1.98;;
16197;SDS011;8206;51.440;6.914;2024-03-22T09:56:14;3.80;;;2.22;;
16197;SDS011;8206;51.440;6.914;2024-03-22T09:58:41;3.50;;;3.20;;
16197;SDS011;8206;51.440;6.914;2024-03-22T10:01:07;3.88;;;3.47;;
16197;SDS011;8206;51.440;6.914;2024-03-22T10:03:34;2.47;;;2.35;;
16197;SDS011;8206;51.440;6.914;2024-03-22T10:06:03;2.50;;;2.30;;
16197;SDS011;8206;51.440;6.914;2024-03-22T10:08:30;3.70;;;2.72;;
16197;SDS011;8206;51.440;6.914;2024-03-22T10:10:57;5.05;;;2.22;;
16197;SDS011;8206;51.440;6.914;2024-03-22T10:13:23;3.50;;;1.75;;
16197;SDS011;8206;51.440;6.914;2024-03-22T10:15:49;1.95;;;1.85;;
16197;SDS011;8206;51.440;6.914;2024-03-22T10:18:16;3.33;;;1.88;;
16197;SDS011;8206;51.440;6.914;2024-03-22T10:20:42;2.95;;;2.75;;
16197;SDS011;8206;51.440;6.914;2024-03-22T10:23:10;4.72;;;2.03;;
16197;SDS011;8206;51.440;6.914;2024-03-22T10:25:36;1.58;;;1.55;;
16197;SDS011;8206;51.440;6.914;2024-03-22T10:28:03;2.75;;;2.38;;
16197;SDS011;8206;51.440;6.914;2024-03-22T10:30:29;2.05;;;1.95;;
16197;SDS011;8206;51.440;6.914;2024-03-22T10:32:56;1.98;;;1.88;;
16197;SDS011;8206;51.440;6.914;2024-03-22T10:35:23;2.45;;;2.20;;
16197;SDS011;8206;51.440;6.914;2024-03-22T10:37:52;3.03;;;2.83;;
16197;SDS011;8206;51.440;6.914;2024-03-22T10:40:19;2.30;;;2.20;;
16197;SDS011;8206;51.440;6.914;2024-03-22T10:42:46;9.10;;;2.10;;
16197;SDS011;8206;51.440;6.914;2024-03-22T10:45:12;1.33;;;1.33;;
16197;SDS011;8206;51.440;6.914;2024-03-22T10:47:39;1.45;;;1.38;;
16197;SDS011;8206;51.440;6.914;2024-03-22T10:50:05;1.73;;;1.63;;
16197;SDS011;8206;51.440;6.914;2024-03-22T10:52:34;4.13;;;2.80;;
16197;SDS011;8206;51.440;6.914;2024-03-22T10:55:03;1.17;;;1.17;;
16197;SDS011;8206;51.440;6.914;2024-03-22T10:57:35;7.68;;;2.97;;
16197;SDS011;8206;51.440;6.914;2024-03-22T11:00:03;1.85;;;1.75;;
16197;SDS011;8206;51.440;6.914;2024-03-22T11:02:35;2.35;;;2.22;;
16197;SDS011;8206;51.440;6.914;2024-03-22T11:05:01;2.38;;;2.17;;
16197;SDS011;8206;51.440;6.914;2024-03-22T11:07:28;2.63;;;2.42;;
16197;SDS011;8206;51.440;6.914;2024-03-22T11:09:55;10.82;;;2.50;;
16197;SDS011;8206;51.440;6.914;2024-03-22T11:12:23;4.05;;;3.33;;
16197;SDS011;8206;51.440;6.914;2024-03-22T11:14:51;2.17;;;2.08;;
16197;SDS011;8206;51.440;6.914;2024-03-22T11:17:18;4.00;;;3.70;;
16197;SDS011;8206;51.440;6.914;2024-03-22T11:19:44;2.20;;;2.10;;
16197;SDS011;8206;51.440;6.914;2024-03-22T11:22:11;2.05;;;1.92;;
16197;SDS011;8206;51.440;6.914;2024-03-22T11:24:38;3.03;;;2.83;;
16197;SDS011;8206;51.440;6.914;2024-03-22T11:27:04;2.38;;;2.17;;
16197;SDS011;8206;51.440;6.914;2024-03-22T11:29:30;1.80;;;1.70;;
16197;SDS011;8206;51.440;6.914;2024-03-22T11:31:58;3.10;;;1.95;;
16197;SDS011;8206;51.440;6.914;2024-03-22T11:34:25;1.77;;;1.67;;
16197;SDS011;8206;51.440;6.914;2024-03-22T11:36:53;9.18;;;3.30;;
16197;SDS011;8206;51.440;6.914;2024-03-22T11:39:19;2.05;;;1.83;;
16197;SDS011;8206;51.440;6.914;2024-03-22T11:41:45;2.38;;;2.25;;
16197;SDS011;8206;51.440;6.914;2024-03-22T11:44:14;2.58;;;2.47;;
16197;SDS011;8206;51.440;6.914;2024-03-22T11:46:41;2.45;;;2.35;;
16197;SDS011;8206;51.440;6.914;2024-03-22T11:49:08;2.17;;;2.00;;
16197;SDS011;8206;51.440;6.914;2024-03-22T11:51:35;2.38;;;1.33;;
16197;SDS011;8206;51.440;6.914;2024-03-22T11:54:01;2.38;;;2.15;;
16197;SDS011;8206;51.440;6.914;2024-03-22T11:56:29;2.35;;;2.25;;
16197;SDS011;8206;51.440;6.914;2024-03-22T11:58:57;2.17;;;2.08;;
16197;SDS011;8206;51.440;6.914;2024-03-22T12:01:25;1.40;;;1.40;;
16197;SDS011;8206;51.440;6.914;2024-03-22T12:03:51;1.98;;;1.88;;
16197;SDS011;8206;51.440;6.914;2024-03-22T12:06:19;2.47;;;2.28;;
16197;SDS011;8206;51.440;6.914;2024-03-22T12:08:45;2.83;;;2.58;;
16197;SDS011;8206;51.440;6.914;2024-03-22T12:11:12;2.72;;;2.53;;
16197;SDS011;8206;51.440;6.914;2024-03-22T12:13:39;1.95;;;1.70;;
16197;SDS011;8206;51.440;6.914;2024-03-22T12:16:06;2.38;;;2.17;;
16197;SDS011;8206;51.440;6.914;2024-03-22T12:18:32;2.80;;;2.67;;
16197;SDS011;8206;51.440;6.914;2024-03-22T12:20:59;2.72;;;2.53;;
16197;SDS011;8206;51.440;6.914;2024-03-22T12:23:27;2.70;;;2.58;;
16197;SDS011;8206;51.440;6.914;2024-03-22T12:25:53;2.22;;;2.13;;
16197;SDS011;8206;51.440;6.914;2024-03-22T12:28:20;3.15;;;2.95;;
16197;SDS011;8206;51.440;6.914;2024-03-22T12:30:48;2.70;;;2.50;;
16197;SDS011;8206;51.440;6.914;2024-03-22T12:33:15;3.33;;;3.03;;
16197;SDS011;8206;51.440;6.914;2024-03-22T12:35:42;1.40;;;1.40;;
16197;SDS011;8206;51.440;6.914;2024-03-22T12:38:08;2.03;;;1.92;;
16197;SDS011;8206;51.440;6.914;2024-03-22T12:40:37;3.55;;;2.63;;
16197;SDS011;8206;51.440;6.914;2024-03-22T12:43:03;1.98;;;1.88;;
16197;SDS011;8206;51.440;6.914;2024-03-22T12:45:30;2.47;;;2.35;;
16197;SDS011;8206;51.440;6.914;2024-03-22T12:47:57;3.05;;;2.80;;
16197;SDS011;8206;51.440;6.914;2024-03-22T12:50:24;5.18;;;3.88;;
16197;SDS011;8206;51.440;6.914;2024-03-22T12:52:50;3.22;;;2.47;;
16197;SDS011;8206;51.440;6.914;2024-03-22T12:55:16;3.72;;;3.45;;
16197;SDS011;8206;51.440;6.914;2024-03-22T12:57:43;3.33;;;3.03;;
16197;SDS011;8206;51.440;6.914;2024-03-22T13:00:11;2.78;;;2.40;;
16197;SDS011;8206;51.440;6.914;2024-03-22T13:02:38;4.47;;;4.18;;
16197;SDS011;8206;51.440;6.914;2024-03-22T13:05:05;3.47;;;3.17;;
16197;SDS011;8206;51.440;6.914;2024-03-22T13:07:32;4.15;;;3.85;;
16197;SDS011;8206;51.440;6.914;2024-03-22T13:09:58;4.40;;;2.83;;
16197;SDS011;8206;51.440;6.914;2024-03-22T13:12:25;3.35;;;3.03;;
16197;SDS011;8206;51.440;6.914;2024-03-22T13:14:53;9.75;;;3.95;;
16197;SDS011;8206;51.440;6.914;2024-03-22T13:17:19;2.53;;;2.42;;
16197;SDS011;8206;51.440;6.914;2024-03-22T13:19:46;8.27;;;3.47;;
16197;SDS011;8206;51.440;6.914;2024-03-22T13:22:12;6.18;;;3.60;;
16197;SDS011;8206;51.440;6.914;2024-03-22T13:24:41;2.97;;;2.73;;
16197;SDS011;8206;51.440;6.914;2024-03-22T13:27:06;3.57;;;3.27;;
16197;SDS011;8206;51.440;6.914;2024-03-22T13:29:34;2.73;;;2.63;;
16197;SDS011;8206;51.440;6.914;2024-03-22T13:32:01;6.80;;;4.93;;
16197;SDS011;8206;51.440;6.914;2024-03-22T13:34:29;4.37;;;2.50;;
16197;SDS011;8206;51.440;6.914;2024-03-22T13:36:55;3.33;;;3.13;;
16197;SDS011;8206;51.440;6.914;2024-03-22T13:39:22;3.60;;;2.67;;
16197;SDS011;8206;51.440;6.914;2024-03-22T13:41:48;2.63;;;2.53;;
16197;SDS011;8206;51.440;6.914;2024-03-22T13:44:14;3.22;;;3.03;;
16197;SDS011;8206;51.440;6.914;2024-03-22T13:46:41;3.45;;;3.25;;
16197;SDS011;8206;51.440;6.914;2024-03-22T13:49:12;2.90;;;2.50;;
16197;SDS011;8206;51.440;6.914;2024-03-22T13:51:41;2.25;;;2.15;;
16197;SDS011;8206;51.440;6.914;2024-03-22T13:54:07;3.08;;;2.35;;
16197;SDS011;8206;51.440;6.914;2024-03-22T13:56:34;2.92;;;2.72;;
16197;SDS011;8206;51.440;6.914;2024-03-22T13:59:00;3.63;;;3.33;;
16197;SDS011;8206;51.440;6.914;2024-03-22T14:01:27;3.88;;;2.35;;
16197;SDS011;8206;51.440;6.914;2024-03-22T14:03:53;4.25;;;3.88;;
16197;SDS011;8206;51.440;6.914;2024-03-22T14:06:21;3.10;;;2.35;;
16197;SDS011;8206;51.440;6.914;2024-03-22T14:08:46;5.78;;;3.80;;
16197;SDS011;8206;51.440;6.914;2024-03-22T14:11:13;4.97;;;4.57;;
16197;SDS011;8206;51.440;6.914;2024-03-22T14:13:39;4.10;;;3.73;;
16197;SDS011;8206;51.440;6.914;2024-03-22T14:16:05;4.70;;;3.97;;
16197;SDS011;8206;51.440;6.914;2024-03-22T14:18:33;8.93;;;3.07;;
16197;SDS011;8206;51.440;6.914;2024-03-22T14:21:00;4.30;;;3.97;;
16197;SDS011;8206;51.440;6.914;2024-03-22T14:23:28;5.20;;;4.53;;
16197;SDS011;8206;51.440;6.914;2024-03-22T14:25:55;2.97;;;2.70;;
16197;SDS011;8206;51.440;6.914;2024-03-22T14:28:20;4.38;;;3.53;;
16197;SDS011;8206;51.440;6.914;2024-03-22T14:30:48;6.57;;;4.67;;
16197;SDS011;8206;51.440;6.914;2024-03-22T14:33:14;3.10;;;2.90;;
16197;SDS011;8206;51.440;6.914;2024-03-22T14:35:41;3.63;;;3.27;;
16197;SDS011;8206;51.440;6.914;2024-03-22T14:38:08;4.03;;;3.27;;
16197;SDS011;8206;51.440;6.914;2024-03-22T14:40:35;11.33;;;2.97;;
16197;SDS011;8206;51.440;6.914;2024-03-22T14:43:03;3.17;;;2.87;;
16197;SDS011;8206;51.440;6.914;2024-03-22T14:45:29;5.47;;;5.17;;
16197;SDS011;8206;51.440;6.914;2024-03-22T14:47:56;4.37;;;3.13;;
16197;SDS011;8206;51.440;6.914;2024-03-22T14:50:22;3.20;;;2.83;;
16197;SDS011;8206;51.440;6.914;2024-03-22T14:52:49;10.97;;;5.00;;
16197;SDS011;8206;51.440;6.914;2024-03-22T14:55:15;4.07;;;3.77;;
16197;SDS011;8206;51.440;6.914;2024-03-22T14:57:43;5.00;;;4.50;;